createdAt,value
2017-06-10T00:01:14.065Z,11.8
2017-06-10T00:11:29.305Z,11.7
2017-06-10T00:21:44.043Z,11.7
2017-06-10T00:31:59.352Z,11.3
2017-06-10T00:42:13.380Z,10.9
2017-06-10T00:52:27.701Z,10.9
2017-06-10T01:02:42.053Z,11
2017-06-10T01:12:55.873Z,10.8
2017-06-10T01:23:10.662Z,10.8
2017-06-10T01:33:26.081Z,10.8
2017-06-10T01:43:41.543Z,10.6
2017-06-10T01:53:55.510Z,10.6
2017-06-10T02:04:10.426Z,10.4
2017-06-10T02:14:25.631Z,10.3
2017-06-10T02:24:39.671Z,10.6
2017-06-10T02:34:54.857Z,10.5
2017-06-10T02:45:10.169Z,10.5
2017-06-10T02:55:24.315Z,10.8
2017-06-10T03:05:39.793Z,10.8
2017-06-10T03:15:55.103Z,10.7
2017-06-10T03:26:09.772Z,10.6
2017-06-10T03:36:25.036Z,10.3
2017-06-10T03:46:39.103Z,10.5
2017-06-10T03:56:53.240Z,10.6
2017-06-10T04:07:07.958Z,10.7
2017-06-10T04:17:22.243Z,10.8
2017-06-10T04:27:36.293Z,11.1
2017-06-10T04:37:50.739Z,11
2017-06-10T04:48:04.704Z,11.6
2017-06-10T04:58:19.448Z,12
2017-06-10T05:08:34.667Z,12.3
2017-06-10T05:18:50.018Z,12.5
2017-06-10T05:29:04.462Z,12.9
2017-06-10T05:39:18.417Z,13.3
2017-06-10T05:49:33.199Z,13.8
2017-06-10T05:59:47.998Z,14.5
2017-06-10T06:10:03.375Z,15.4
2017-06-10T06:20:18.721Z,16.8
2017-06-10T06:30:33.247Z,17
2017-06-10T06:40:48.655Z,17.3
2017-06-10T06:51:03.549Z,18
2017-06-10T07:01:18.332Z,17.9
2017-06-10T07:11:34.139Z,18.9
2017-06-10T07:21:49.256Z,18.9
2017-06-10T07:32:03.835Z,19.3
2017-06-10T07:42:19.046Z,19
2017-06-10T07:52:34.051Z,19.1
2017-06-10T08:02:49.404Z,19.6
2017-06-10T08:13:04.686Z,19.9
2017-06-10T08:23:19.170Z,20.4
2017-06-10T08:33:34.155Z,21
2017-06-10T08:43:49.975Z,21
2017-06-10T08:54:04.015Z,21.4
2017-06-10T09:04:19.023Z,21.4
2017-06-10T09:14:33.493Z,21.6
2017-06-10T09:24:48.871Z,21.7
2017-06-10T09:35:03.710Z,21.4
2017-06-10T09:45:18.614Z,22.2
2017-06-10T09:55:33.447Z,21.5
2017-06-10T10:05:48.258Z,22.1
2017-06-10T10:16:02.320Z,22.7
2017-06-10T10:26:18.214Z,22.6
2017-06-10T10:36:32.257Z,23.5
2017-06-10T10:46:47.968Z,22.2
2017-06-10T10:57:03.827Z,22.2
2017-06-10T11:07:18.503Z,22.8
2017-06-10T11:17:33.579Z,23
2017-06-10T11:27:48.788Z,24.5
2017-06-10T11:38:03.087Z,22.9
2017-06-10T11:48:18.348Z,23.1
2017-06-10T11:58:33.306Z,23.5
2017-06-10T12:08:47.737Z,23.1
2017-06-10T12:19:02.435Z,24
2017-06-10T12:29:18.096Z,23.8
2017-06-10T12:39:32.210Z,23.9
2017-06-10T12:49:47.133Z,23.8
2017-06-10T13:00:03.002Z,23.9
2017-06-10T13:10:17.789Z,23.9
2017-06-10T13:20:33.250Z,23.7
2017-06-10T13:30:48.007Z,23.8
2017-06-10T13:41:03.185Z,24.1
2017-06-10T13:51:18.434Z,24.7
2017-06-10T14:01:34.021Z,23.5
2017-06-10T14:11:48.579Z,23.8
2017-06-10T14:22:03.226Z,23.6
2017-06-10T14:32:17.453Z,23.1
2017-06-10T14:42:31.659Z,23.3
2017-06-10T14:52:46.418Z,23.4
2017-06-10T15:03:01.335Z,23.7
2017-06-10T15:13:15.899Z,23.4
2017-06-10T15:23:31.302Z,23.9
2017-06-10T15:33:46.746Z,24.2
2017-06-10T15:44:01.615Z,24.2
2017-06-10T15:54:16.484Z,24.3
2017-06-10T16:04:30.428Z,24.8
2017-06-10T16:14:44.840Z,24.5
2017-06-10T16:25:00.553Z,24.2
2017-06-10T16:35:14.687Z,24.5
2017-06-10T16:45:30.357Z,24.7
2017-06-10T16:55:45.077Z,23.8
2017-06-10T17:06:00.810Z,24.5
2017-06-10T17:16:16.314Z,25.1
2017-06-10T17:26:30.859Z,24.5
2017-06-10T17:36:44.780Z,24.8
2017-06-10T17:46:59.345Z,23.4
2017-06-10T17:57:13.243Z,23.4
2017-06-10T18:07:28.120Z,23
2017-06-10T18:17:43.520Z,22.6
2017-06-10T18:27:57.666Z,22.1
2017-06-10T18:38:12.191Z,20.9
2017-06-10T18:48:26.645Z,20.1
2017-06-10T18:58:42.242Z,19.6
2017-06-10T19:08:56.761Z,19.3
2017-06-10T19:19:12.306Z,18.9
2017-06-10T19:29:27.608Z,18.5
2017-06-10T19:39:42.118Z,18.5
2017-06-10T19:49:57.647Z,18.1
2017-06-10T20:00:13.186Z,17.9
2017-06-10T20:10:27.162Z,17.9
2017-06-10T20:20:42.429Z,17.5
2017-06-10T20:30:57.536Z,17.4
2017-06-10T20:41:12.888Z,17.4
2017-06-10T20:51:27.997Z,17.1
2017-06-10T21:01:41.912Z,17.4
2017-06-10T21:11:56.228Z,17.6
2017-06-10T21:22:11.045Z,17.8
2017-06-10T21:32:26.509Z,17.7
2017-06-10T21:42:40.679Z,17.6
2017-06-10T21:52:55.840Z,17.3
2017-06-10T22:03:10.706Z,16.9
2017-06-10T22:13:26.120Z,16.8
2017-06-10T22:23:40.207Z,16.9
2017-06-10T22:33:55.269Z,16.5
2017-06-10T22:44:09.449Z,16.3
2017-06-10T22:54:24.792Z,16.2
2017-06-10T23:04:39.256Z,16.2
2017-06-10T23:14:54.997Z,16.3
2017-06-10T23:25:10.005Z,16.1
2017-06-10T23:35:24.266Z,15.5
2017-06-10T23:45:39.847Z,15.5
2017-06-10T23:55:55.312Z,14.9
